»·PEaware :: N9401L KOXR-KSBA

N9401L :: KOXR-KSBA

FLIGHT INFORMATION

Flight Status: Arrived
Operator: Privately registered:
United States
More flights under this callsign
Pilot: Juan D. (11620)
Aircraft: PIPER PA-28R-201 ARROW
(P28R)
More flights by this aircraft type
Origin: KOXR Oxnard
United States
Destination: KSBA Santa Barbara Mun
United States
More flights between these airports :: More routes between these airports
Route: +VTU282 KWANG
File this flight plan on PilotEdge
Remarks: TEC route VTUP1
Altitude:
(Current/Filed)
4,000ft
Speed:
(Current/Filed)
130kts
Departed: 22-Sep-18 08:22 AM
Arrived: 22-Sep-18 09:00 AM
Distance/Time
Traveled:
34nm/0:37
Distance/Time
To Go:
Arrived

Flight Plot

Page will automatically refresh every two minutes.

Flight plan parsing failed; only flown route is shown


Map Options




Map Legend


Flown Route
Filed Route
Departure Airport
Arrival Airport
Navaid (VOR, NDB)
Fix

Horizontal Profiles

Position Reports

Time Latitude Longitude Heading Altitude Ground
Speed
22-Sep-18 08:12 34.198815 -119.198488 359 45ft 0kts
22-Sep-18 08:13 34.198815 -119.198488 359 45ft 0kts
22-Sep-18 08:14 34.198815 -119.198488 359 45ft 0kts
22-Sep-18 08:15 34.198815 -119.198488 359 45ft 0kts
22-Sep-18 08:16 34.198815 -119.198488 359 45ft 0kts
22-Sep-18 08:17 34.198815 -119.198488 359 45ft 0kts
22-Sep-18 08:18 34.198815 -119.198488 359 45ft 0kts
22-Sep-18 08:19 34.199010 -119.198468 12 45ft 4kts
22-Sep-18 08:20 34.199784 -119.197338 319 45ft 0kts
22-Sep-18 08:21 34.199784 -119.197338 319 45ft 0kts
22-Sep-18 08:22 34.199784 -119.197338 319 45ft 0kts
22-Sep-18 08:23 34.199971 -119.197526 353 45ft 0kts
22-Sep-18 08:24 34.200735 -119.210920 271 254ft 90kts
22-Sep-18 08:25 34.200503 -119.240152 270 1062ft 87kts
22-Sep-18 08:26 34.200183 -119.269686 270 1796ft 88kts
22-Sep-18 08:27 34.206432 -119.297319 299 2494ft 89kts
22-Sep-18 08:28 34.218952 -119.322693 299 3194ft 88kts
22-Sep-18 08:29 34.231774 -119.348077 299 3830ft 89kts
22-Sep-18 08:30 34.244940 -119.373525 299 4341ft 99kts
22-Sep-18 08:31 34.261325 -119.405642 300 4014ft 109kts
22-Sep-18 08:32 34.276935 -119.436495 300 4013ft 106kts
22-Sep-18 08:33 34.292196 -119.466963 300 4013ft 106kts
22-Sep-18 08:34 34.306106 -119.497752 297 4013ft 106kts
22-Sep-18 08:35 34.318516 -119.530351 292 4013ft 107kts
22-Sep-18 08:36 34.330016 -119.563208 293 4013ft 107kts
22-Sep-18 08:37 34.341698 -119.596588 293 4013ft 108kts
22-Sep-18 08:38 34.343898 -119.633020 272 4013ft 109kts
22-Sep-18 08:39 34.344584 -119.669562 271 4014ft 109kts
22-Sep-18 08:40 34.345309 -119.706439 271 4014ft 110kts
22-Sep-18 08:41 34.346078 -119.743494 271 4014ft 110kts
22-Sep-18 08:42 34.346889 -119.780576 272 4014ft 110kts
22-Sep-18 08:43 34.347720 -119.817570 272 4014ft 110kts
22-Sep-18 08:44 34.348574 -119.854705 272 4014ft 110kts
22-Sep-18 08:45 34.349447 -119.891840 272 4014ft 110kts
22-Sep-18 08:46 34.350339 -119.928937 272 4014ft 110kts
22-Sep-18 08:47 34.351250 -119.966070 272 4014ft 110kts
22-Sep-18 08:48 34.352202 -120.003563 272 4014ft 112kts
22-Sep-18 08:49 34.353140 -120.041599 272 4006ft 114kts
22-Sep-18 08:50 34.354096 -120.080596 272 4002ft 116kts
22-Sep-18 08:51 34.355050 -120.119954 272 3996ft 117kts
22-Sep-18 08:52 34.368534 -120.149315 351 3990ft 112kts
22-Sep-18 08:53 34.397105 -120.145793 58 3986ft 110kts
22-Sep-18 08:54 34.411133 -120.112928 62 3574ft 111kts
22-Sep-18 08:55 34.420378 -120.077646 81 3038ft 111kts
22-Sep-18 08:56 34.422405 -120.041078 86 2669ft 108kts
22-Sep-18 08:57 34.423515 -120.005222 86 2531ft 99kts
22-Sep-18 08:58 34.425347 -119.969087 85 2299ft 113kts
22-Sep-18 08:59 34.426770 -119.931343 87 1553ft 110kts
22-Sep-18 09:00 34.426848 -119.897543 78 641ft 104kts
22-Sep-18 09:01 34.427299 -119.867454 89 246ft 92kts
22-Sep-18 09:02 34.428002 -119.846617 44 16ft 23kts
22-Sep-18 09:03 34.430005 -119.841613 65 16ft 35kts
22-Sep-18 09:04 34.432389 -119.835935 344 16ft 0kts
22-Sep-18 09:05 34.432412 -119.835943 344 16ft 0kts
22-Sep-18 09:06 34.432412 -119.835943 344 16ft 0kts

Navigation Log

Ident Type
Flight plan parsing failed, navigation log unavailable